9 a 16/11 - Algo cálido, tormentas especialmente hacia NOA/O/N Patagónico y O región pampeana, más estable al este


Avatar de Usuario
Diecha
Mensajes: 15104
Registrado: Jue Ago 25, 2011 9:31 pm
Ubicación: Lomas de Zamora

Re: 9 a 16/11 - Algo cálido, tormentas especialmente hacia NOA/O/N Patagónico y O región pampeana, más estable al este

Mensaje por Diecha » Sab Nov 14, 2020 11:36 pm

- El Palomar 23:25 hs: SADP 150225Z 18014KT 6000 RA BKN021 OVC075 21/17 Q1012

Imagen

Avatar de Usuario
Ale de Castelar
Mensajes: 28411
Registrado: Sab Mar 03, 2012 12:25 pm
Ubicación: Caballito

Re: 9 a 16/11 - Algo cálido, tormentas especialmente hacia NOA/O/N Patagónico y O región pampeana, más estable al este

Mensaje por Ale de Castelar » Sab Nov 14, 2020 11:37 pm

La Merced, Salta


Avatar de Usuario
Diecha
Mensajes: 15104
Registrado: Jue Ago 25, 2011 9:31 pm
Ubicación: Lomas de Zamora

Re: 9 a 16/11 - Algo cálido, tormentas especialmente hacia NOA/O/N Patagónico y O región pampeana, más estable al este

Mensaje por Diecha » Sab Nov 14, 2020 11:41 pm


Avatar de Usuario
Diecha
Mensajes: 15104
Registrado: Jue Ago 25, 2011 9:31 pm
Ubicación: Lomas de Zamora

Re: 9 a 16/11 - Algo cálido, tormentas especialmente hacia NOA/O/N Patagónico y O región pampeana, más estable al este

Mensaje por Diecha » Sab Nov 14, 2020 11:50 pm

- San Fernando 23:34 hs: SADF 150234Z 22009G31KT 9999 OVC100 BKN200 20/16 Q1012 (ráfaga de 57 Km/h)
- Aeroparque 23:35 hs: SABE 150235Z 23013G23KT CAVOK 21/15 Q1011 (ráfaga de 43 Km/h)

Imagen



Avatar de Usuario
Ezequiel1995
Mensajes: 1810
Registrado: Mar Nov 12, 2019 4:50 pm
Ubicación: Merlo, Buenos Aires
Contactar:

Re: 9 a 16/11 - Algo cálido, tormentas especialmente hacia NOA/O/N Patagónico y O región pampeana, más estable al este

Mensaje por Ezequiel1995 » Dom Nov 15, 2020 12:16 am

No va a llegar nada acá...
#MuerteALasLineas (by Fedex)
Aplicación Gustfront! 2.5

Avatar de Usuario
Diecha
Mensajes: 15104
Registrado: Jue Ago 25, 2011 9:31 pm
Ubicación: Lomas de Zamora

Re: 9 a 16/11 - Algo cálido, tormentas especialmente hacia NOA/O/N Patagónico y O región pampeana, más estable al este

Mensaje por Diecha » Dom Nov 15, 2020 1:05 am

Imagen

Imagen
Spoiler
Mostrar
Imagen
Imagen
Imagen
Imagen
Imagen
Imagen
Imagen
Imagen
Imagen
Imagen
Imagen
Imagen
Imagen
Imagen
Última edición por Diecha el Dom Nov 15, 2020 11:42 am, editado 1 vez en total.


Responder